Donaueschingen-Villingen, Germany

4:07 AM CEST on July 26, 2016 (GMT +0200)
EDTD General MET-Station | | Change Station

Elev 2228 ft 47.98 °N, 8.52 °E | Updated 36 seconds ago

Partly Cloudy
Partly Cloudy
61.2 °F
Feels Like 61.2 °F
N
5.1
Wind Variable Wind from NNW
Gusts 7.4 mph

Today
High -- | Low -- °F
--% Chance of Precip.
Yesterday
High -- | Low -- °F
Precip. -- in
Pressure 30.15 in
Visibility 3.1 miles
Clouds Few 100 ft
Dew Point 54 °F
Humidity 76%
Rainfall 0.00 in
Snow Depth Not available.
5:54 AM 9:09 PM
Waning Gibbous, 60% visible
METAR LSZH 260150Z 01003KT 5000 R14/P2000N R16/1000U R28/P2000N R34/P2000N BR FEW001 17/17 Q1021 NOSIG
Pressure 30.15 in
Visibility 3.1 miles
Clouds Few 100 ft
Dew Point 54 °F
Humidity 76%
Rainfall 0.00 in
Snow Depth Not available.
5:54 AM 9:09 PM
Waning Gibbous, 60% visible
METAR LSZH 260150Z 01003KT 5000 R14/P2000N R16/1000U R28/P2000N R34/P2000N BR FEW001 17/17 Q1021 NOSIG

10-Day Weather Forecast

×

Almanac

Astronomy

Jul. 26, 2016 Rise Set
Actual Time
Civil Twilight
Nautical Twilight
Astronomical Twilight
Moon
Length of Visible Light
Length of Day
Tomorrow will be .
, % of the Moon is Illuminated

Today's Extremes

Country Highs Country Lows

Community

WunderPhotos

Upload Photos

1,927,497 photos uploaded!

WunderBlog® & News

Nearby

Air Quality

  Air Quality AQ Index Pollutant
Not available.

Snow Depth

Station Depth Elevation

Earthquake Activity

City Distance Mag. Time & Date
Minimum magnitude displayed is 2.5.

Coastal Water Temperatures

Place Temperature

Stations

Nearby Weather Stations

Station Location Temp. Windchill Dew Point Humidity Wind Precip. Elev Updated Type